createdAt,value
2023-05-18T00:00:12.363Z,3.47
2023-05-18T00:01:12.286Z,3.46
2023-05-18T00:02:12.337Z,3.44
2023-05-18T00:03:12.365Z,3.39
2023-05-18T00:04:12.321Z,3.43
2023-05-18T00:05:12.321Z,3.39
2023-05-18T00:06:12.305Z,3.33
2023-05-18T00:07:12.314Z,3.33
2023-05-18T00:08:12.337Z,3.31
2023-05-18T00:09:12.328Z,3.30
2023-05-18T00:10:12.273Z,3.27
2023-05-18T00:11:12.260Z,3.27
2023-05-18T00:12:12.260Z,3.21
2023-05-18T00:13:12.263Z,3.18
2023-05-18T00:14:12.257Z,3.16
2023-05-18T00:15:12.329Z,3.18
2023-05-18T00:16:12.313Z,3.20
2023-05-18T00:17:12.232Z,3.24
2023-05-18T00:18:12.274Z,3.24
2023-05-18T00:19:12.267Z,3.24
2023-05-18T00:20:12.282Z,3.15
2023-05-18T00:21:12.194Z,3.10
2023-05-18T00:22:12.074Z,3.10
2023-05-18T00:23:12.180Z,3.05
2023-05-18T00:24:12.060Z,3.02
2023-05-18T00:25:12.068Z,2.97
2023-05-18T00:26:12.181Z,2.97
2023-05-18T00:27:12.048Z,2.98
2023-05-18T00:28:12.051Z,3.03
2023-05-18T00:29:12.037Z,3.02
2023-05-18T00:30:12.050Z,3.00
2023-05-18T00:31:12.203Z,2.97
2023-05-18T00:32:11.994Z,2.98
2023-05-18T00:33:12.007Z,2.98
2023-05-18T00:34:12.035Z,2.94
2023-05-18T00:35:12.005Z,2.92
2023-05-18T00:36:12.078Z,2.88
2023-05-18T00:37:11.998Z,2.82
2023-05-18T00:38:11.994Z,2.84
2023-05-18T00:39:11.980Z,2.82
2023-05-18T00:40:11.977Z,2.79
2023-05-18T00:41:11.897Z,2.77
2023-05-18T00:42:11.957Z,2.74
2023-05-18T00:43:11.814Z,2.77
2023-05-18T00:44:11.877Z,2.81
2023-05-18T00:45:11.864Z,2.82
2023-05-18T00:46:11.904Z,2.79
2023-05-18T00:47:11.837Z,2.71
2023-05-18T00:48:11.936Z,2.70
2023-05-18T00:49:11.921Z,2.64
2023-05-18T00:50:11.812Z,2.61
2023-05-18T00:51:11.810Z,2.55
2023-05-18T00:52:11.814Z,2.53
2023-05-18T00:53:11.759Z,2.51
2023-05-18T00:54:11.759Z,2.55
2023-05-18T00:55:11.820Z,2.59
2023-05-18T00:56:11.797Z,2.55
2023-05-18T00:57:11.758Z,2.51
2023-05-18T00:58:11.806Z,2.49
2023-05-18T00:59:12.016Z,2.48
2023-05-18T01:00:11.774Z,2.45
2023-05-18T01:01:11.816Z,2.40
2023-05-18T01:02:11.727Z,2.34
2023-05-18T01:03:11.924Z,2.35
2023-05-18T01:04:11.738Z,2.35
2023-05-18T01:05:11.773Z,2.34
2023-05-18T01:06:11.701Z,2.30
2023-05-18T01:07:11.725Z,2.31
2023-05-18T01:08:11.663Z,2.33
2023-05-18T01:09:11.686Z,2.30
2023-05-18T01:10:11.742Z,2.23
2023-05-18T01:11:11.710Z,2.26
2023-05-18T01:12:11.649Z,2.27
2023-05-18T01:13:11.714Z,2.27
2023-05-18T01:14:11.701Z,2.31
2023-05-18T01:15:11.676Z,2.30
2023-05-18T01:16:11.664Z,2.27
2023-05-18T01:17:11.817Z,2.31
2023-05-18T01:18:11.625Z,2.34
2023-05-18T01:19:11.587Z,2.38
2023-05-18T01:20:11.629Z,2.38
2023-05-18T01:21:11.535Z,2.38
2023-05-18T01:22:11.522Z,2.41
2023-05-18T01:23:11.534Z,2.41
2023-05-18T01:24:11.519Z,2.40
2023-05-18T01:25:11.505Z,2.35
2023-05-18T01:26:11.601Z,2.37
2023-05-18T01:27:11.580Z,2.38
2023-05-18T01:28:11.506Z,2.40
2023-05-18T01:29:11.424Z,2.41
2023-05-18T01:30:11.456Z,2.38
2023-05-18T01:31:11.506Z,2.31
2023-05-18T01:32:11.510Z,2.30
2023-05-18T01:33:11.496Z,2.26
2023-05-18T01:34:11.374Z,2.23
2023-05-18T01:35:11.406Z,2.22
2023-05-18T01:36:11.429Z,2.20
2023-05-18T01:37:11.446Z,2.15
2023-05-18T01:38:11.380Z,2.12
2023-05-18T01:39:11.376Z,2.10
2023-05-18T01:40:11.364Z,2.10
2023-05-18T01:41:11.361Z,2.09
2023-05-18T01:42:11.359Z,2.09
2023-05-18T01:43:11.331Z,2.12
2023-05-18T01:44:11.331Z,2.12
2023-05-18T01:45:11.279Z,2.15
2023-05-18T01:46:11.412Z,2.15
2023-05-18T01:47:11.362Z,2.15
2023-05-18T01:48:11.394Z,2.16
2023-05-18T01:49:11.262Z,2.10
2023-05-18T01:50:11.250Z,2.08
2023-05-18T01:51:11.243Z,2.12
2023-05-18T01:52:11.313Z,2.12
2023-05-18T01:53:11.304Z,2.06
2023-05-18T01:54:11.226Z,2.06
2023-05-18T01:55:11.145Z,2.01
2023-05-18T01:56:11.198Z,2.04
2023-05-18T01:57:11.113Z,2.04
2023-05-18T01:58:11.106Z,2.04
2023-05-18T01:59:11.241Z,1.99
2023-05-18T02:00:10.961Z,2.01
2023-05-18T02:01:11.090Z,1.97
2023-05-18T02:02:11.203Z,1.98
2023-05-18T02:03:11.295Z,1.98
2023-05-18T02:04:11.182Z,1.97
2023-05-18T02:05:11.177Z,1.94
2023-05-18T02:06:11.062Z,1.94
2023-05-18T02:07:11.044Z,1.98
2023-05-18T02:08:11.055Z,1.98
2023-05-18T02:09:11.002Z,1.94
2023-05-18T02:10:11.019Z,1.99
2023-05-18T02:11:11.120Z,1.97
2023-05-18T02:12:11.040Z,1.99
2023-05-18T02:13:11.029Z,1.97
2023-05-18T02:14:11.041Z,1.98
2023-05-18T02:15:11.041Z,1.91
2023-05-18T02:16:11.012Z,1.91
2023-05-18T02:17:10.986Z,1.91
2023-05-18T02:18:11.069Z,1.90
2023-05-18T02:19:11.101Z,1.85
2023-05-18T02:20:10.972Z,1.82
2023-05-18T02:21:10.977Z,1.82
2023-05-18T02:22:10.859Z,1.83
2023-05-18T02:23:10.858Z,1.85
2023-05-18T02:24:10.841Z,1.85
2023-05-18T02:25:10.978Z,1.89
2023-05-18T02:26:10.850Z,1.87
2023-05-18T02:27:10.867Z,1.82
2023-05-18T02:28:10.865Z,1.78
2023-05-18T02:29:10.774Z,1.75
2023-05-18T02:30:11.947Z,1.71
2023-05-18T02:31:10.800Z,1.65
2023-05-18T02:32:10.933Z,1.64
2023-05-18T02:33:10.776Z,1.60
2023-05-18T02:34:10.757Z,1.60
2023-05-18T02:35:10.766Z,1.58
2023-05-18T02:36:10.765Z,1.60
2023-05-18T02:37:10.781Z,1.61
2023-05-18T02:38:10.722Z,1.61
2023-05-18T02:39:10.762Z,1.60
2023-05-18T02:40:10.673Z,1.60
2023-05-18T02:41:10.651Z,1.55
2023-05-18T02:42:10.643Z,1.50
2023-05-18T02:43:10.652Z,1.46
2023-05-18T02:44:10.659Z,1.44
2023-05-18T02:45:10.682Z,1.39
2023-05-18T02:46:10.706Z,1.36
2023-05-18T02:47:10.592Z,1.34
2023-05-18T02:48:10.695Z,1.32
2023-05-18T02:49:10.605Z,1.32
2023-05-18T02:50:10.566Z,1.29
2023-05-18T02:51:10.635Z,1.28
2023-05-18T02:52:10.636Z,1.26
2023-05-18T02:53:10.543Z,1.28
2023-05-18T02:54:10.473Z,1.33
2023-05-18T02:55:10.467Z,1.40
2023-05-18T02:56:10.478Z,1.40
2023-05-18T02:57:10.539Z,1.39
2023-05-18T02:58:10.456Z,1.36
2023-05-18T02:59:10.434Z,1.33
2023-05-18T03:00:10.413Z,1.33
2023-05-18T03:01:10.438Z,1.28
2023-05-18T03:02:10.544Z,1.25
2023-05-18T03:03:10.429Z,1.22
2023-05-18T03:04:10.394Z,1.25
2023-05-18T03:05:10.410Z,1.26
2023-05-18T03:06:10.343Z,1.24
2023-05-18T03:07:10.441Z,1.21
2023-05-18T03:08:10.366Z,1.21
2023-05-18T03:09:10.308Z,1.21
2023-05-18T03:10:10.323Z,1.22
2023-05-18T03:11:10.338Z,1.22
2023-05-18T03:12:10.275Z,1.22
2023-05-18T03:13:10.357Z,1.22
2023-05-18T03:14:10.268Z,1.25
2023-05-18T03:15:10.268Z,1.26
2023-05-18T03:16:10.262Z,1.26
2023-05-18T03:17:10.516Z,1.28
2023-05-18T03:18:10.333Z,1.29
2023-05-18T03:19:10.220Z,1.28
2023-05-18T03:20:10.211Z,1.34
2023-05-18T03:21:10.198Z,1.32
2023-05-18T03:22:10.287Z,1.36
2023-05-18T03:23:10.293Z,1.34
2023-05-18T03:24:10.210Z,1.32
2023-05-18T03:25:10.219Z,1.26
2023-05-18T03:26:10.230Z,1.25
2023-05-18T03:27:10.215Z,1.21
2023-05-18T03:28:10.224Z,1.24
2023-05-18T03:29:10.152Z,1.25
2023-05-18T03:30:10.165Z,1.28
2023-05-18T03:31:10.272Z,1.28
2023-05-18T03:32:10.067Z,1.29
2023-05-18T03:33:10.214Z,1.29
2023-05-18T03:34:10.207Z,1.28
2023-05-18T03:35:10.078Z,1.32
2023-05-18T03:36:10.072Z,1.29
2023-05-18T03:37:10.086Z,1.29
2023-05-18T03:38:09.903Z,1.32
2023-05-18T03:39:10.089Z,1.34
2023-05-18T03:40:09.992Z,1.33
2023-05-18T03:41:09.904Z,1.32
2023-05-18T03:42:10.009Z,1.32
2023-05-18T03:43:09.996Z,1.28
2023-05-18T03:44:10.082Z,1.25
2023-05-18T03:45:09.977Z,1.25
2023-05-18T03:46:09.996Z,1.28
2023-05-18T03:47:09.918Z,1.33
2023-05-18T03:48:09.945Z,1.36
2023-05-18T03:49:09.943Z,1.40
2023-05-18T03:50:10.035Z,1.43
2023-05-18T03:51:09.895Z,1.51
2023-05-18T03:52:09.862Z,1.51
2023-05-18T03:53:09.878Z,1.54
2023-05-18T03:54:09.867Z,1.55
2023-05-18T03:55:09.981Z,1.65
2023-05-18T03:56:09.979Z,1.80
2023-05-18T03:57:09.780Z,1.89
2023-05-18T03:58:09.757Z,1.99
2023-05-18T03:59:09.834Z,2.15
2023-05-18T04:00:09.819Z,2.28
2023-05-18T04:01:09.764Z,2.34
2023-05-18T04:02:09.813Z,2.51
2023-05-18T04:03:09.940Z,2.69
2023-05-18T04:04:09.869Z,2.76
2023-05-18T04:05:09.832Z,2.89
2023-05-18T04:06:09.712Z,3.06
2023-05-18T04:07:09.850Z,3.24
2023-05-18T04:08:09.869Z,3.43
2023-05-18T04:09:09.692Z,3.61
2023-05-18T04:10:09.640Z,3.85
2023-05-18T04:11:09.572Z,4.08
2023-05-18T04:12:09.754Z,4.29
2023-05-18T04:13:09.844Z,4.54
2023-05-18T04:14:09.776Z,4.76
2023-05-18T04:15:09.757Z,4.96
2023-05-18T04:16:09.697Z,5.16
2023-05-18T04:17:09.626Z,5.37
2023-05-18T04:18:09.756Z,5.56
2023-05-18T04:19:09.734Z,5.81
2023-05-18T04:20:09.622Z,6.03
2023-05-18T04:21:09.624Z,6.11
2023-05-18T04:22:09.544Z,6.28
2023-05-18T04:23:09.639Z,6.41
2023-05-18T04:24:09.550Z,6.65
2023-05-18T04:25:09.565Z,6.80
2023-05-18T04:26:09.647Z,6.97
2023-05-18T04:27:09.633Z,7.23
2023-05-18T04:28:09.537Z,7.42
2023-05-18T04:29:09.619Z,7.52
2023-05-18T04:30:09.465Z,7.71
2023-05-18T04:31:09.472Z,7.87
2023-05-18T04:32:09.565Z,8.12
2023-05-18T04:33:09.466Z,8.22
2023-05-18T04:34:09.466Z,8.37
2023-05-18T04:35:09.403Z,8.54
2023-05-18T04:36:09.411Z,8.65
2023-05-18T04:37:09.489Z,8.72
2023-05-18T04:38:09.414Z,8.76
2023-05-18T04:39:09.417Z,8.86
2023-05-18T04:40:09.504Z,8.97
2023-05-18T04:41:09.218Z,9.20
2023-05-18T04:42:09.432Z,9.35
2023-05-18T04:43:09.342Z,9.56
2023-05-18T04:44:09.163Z,9.70
2023-05-18T04:45:09.438Z,9.67
2023-05-18T04:46:09.347Z,9.60
2023-05-18T04:47:09.313Z,9.46
2023-05-18T04:48:09.372Z,9.39
2023-05-18T04:49:09.316Z,9.30
2023-05-18T04:50:09.339Z,9.46
2023-05-18T04:51:09.262Z,9.56
2023-05-18T04:52:09.128Z,9.82
2023-05-18T04:53:09.220Z,9.85
2023-05-18T04:54:09.244Z,10.07
2023-05-18T04:55:09.266Z,10.09
2023-05-18T04:56:09.076Z,10.46
2023-05-18T04:57:09.148Z,10.74
2023-05-18T04:58:09.166Z,10.73
2023-05-18T04:59:09.191Z,10.76
2023-05-18T05:00:09.323Z,10.81
2023-05-18T05:01:09.212Z,10.91
2023-05-18T05:02:09.388Z,11.25
2023-05-18T05:03:09.229Z,11.56
2023-05-18T05:04:09.151Z,11.74
2023-05-18T05:05:09.157Z,12.12
2023-05-18T05:06:09.147Z,12.38
2023-05-18T05:07:09.158Z,12.30
2023-05-18T05:08:09.070Z,12.02
2023-05-18T05:09:09.094Z,12.06
2023-05-18T05:10:09.100Z,12.38
2023-05-18T05:11:09.030Z,12.62
2023-05-18T05:12:09.112Z,12.84
2023-05-18T05:13:09.132Z,13.00
2023-05-18T05:14:09.027Z,13.30
2023-05-18T05:15:08.892Z,13.30
2023-05-18T05:16:09.036Z,13.44
2023-05-18T05:17:09.009Z,13.59
2023-05-18T05:18:09.085Z,13.73
2023-05-18T05:19:09.058Z,14.01
2023-05-18T05:20:08.892Z,14.25
2023-05-18T05:21:08.861Z,14.60
2023-05-18T05:22:08.975Z,15.08
2023-05-18T05:23:09.081Z,15.38
2023-05-18T05:24:08.859Z,15.51
2023-05-18T05:25:08.931Z,15.63
2023-05-18T05:26:08.933Z,15.78
2023-05-18T05:27:08.872Z,15.92
2023-05-18T05:28:08.963Z,16.03
2023-05-18T05:29:08.868Z,16.15
2023-05-18T05:30:08.751Z,16.34
2023-05-18T05:31:08.960Z,16.48
2023-05-18T05:32:08.858Z,16.62
2023-05-18T05:33:08.822Z,16.55
2023-05-18T05:34:08.813Z,16.80
2023-05-18T05:35:08.912Z,16.86
2023-05-18T05:36:08.844Z,16.80
2023-05-18T05:37:08.753Z,17.03
2023-05-18T05:38:08.752Z,17.30
2023-05-18T05:39:08.736Z,17.47
2023-05-18T05:40:08.731Z,17.70
2023-05-18T05:41:08.860Z,17.55
2023-05-18T05:42:08.777Z,17.36
2023-05-18T05:43:08.739Z,17.43
2023-05-18T05:44:08.722Z,17.41
2023-05-18T05:45:08.782Z,17.35
2023-05-18T05:46:08.714Z,17.76
2023-05-18T05:47:08.603Z,17.97
2023-05-18T05:48:10.090Z,17.79
2023-05-18T05:49:08.692Z,17.50
2023-05-18T05:50:08.638Z,17.51
2023-05-18T05:51:08.698Z,17.79
2023-05-18T05:52:08.609Z,17.87
2023-05-18T05:53:08.440Z,17.23
2023-05-18T05:54:10.689Z,16.65
2023-05-18T05:55:08.456Z,16.86
2023-05-18T05:56:08.517Z,17.10
2023-05-18T05:57:08.402Z,17.23
2023-05-18T05:58:08.465Z,17.70
2023-05-18T05:59:08.380Z,18.24
2023-05-18T06:00:08.409Z,18.74
2023-05-18T06:01:08.402Z,18.91
2023-05-18T06:02:08.575Z,18.82
2023-05-18T06:03:08.382Z,19.13
2023-05-18T06:04:08.566Z,19.10
2023-05-18T06:05:08.381Z,19.05
2023-05-18T06:06:08.366Z,19.23
2023-05-18T06:07:08.383Z,19.63
2023-05-18T06:08:08.315Z,20.08
2023-05-18T06:09:08.389Z,20.25
2023-05-18T06:10:08.330Z,20.53
2023-05-18T06:11:10.751Z,20.74
2023-05-18T06:12:08.467Z,20.81
2023-05-18T06:13:08.488Z,19.43
2023-05-18T06:14:08.525Z,19.29
2023-05-18T06:15:08.515Z,19.65
2023-05-18T06:16:08.314Z,19.40
2023-05-18T06:17:08.221Z,18.92
2023-05-18T06:18:08.362Z,19.47
2023-05-18T06:19:08.412Z,19.69
2023-05-18T06:20:08.189Z,19.97
2023-05-18T06:21:08.299Z,20.33
2023-05-18T06:22:08.292Z,20.59
2023-05-18T06:23:08.282Z,19.73
2023-05-18T06:24:08.271Z,18.64
2023-05-18T06:25:08.147Z,18.67
2023-05-18T06:26:08.356Z,18.28
2023-05-18T06:27:08.327Z,17.85
2023-05-18T06:28:08.231Z,18.29
2023-05-18T06:29:08.118Z,18.54
2023-05-18T06:30:08.238Z,18.79
2023-05-18T06:31:08.096Z,18.46
2023-05-18T06:32:08.406Z,18.52
2023-05-18T06:33:08.142Z,19.01
2023-05-18T06:34:08.158Z,19.02
2023-05-18T06:35:08.056Z,19.32
2023-05-18T06:36:08.052Z,19.68
2023-05-18T06:37:08.236Z,19.55
2023-05-18T06:38:08.151Z,18.95
2023-05-18T06:39:08.146Z,18.76
2023-05-18T06:40:08.125Z,18.54
2023-05-18T06:41:08.252Z,18.07
2023-05-18T06:42:08.136Z,18.61
2023-05-18T06:43:08.090Z,18.13
2023-05-18T06:44:07.974Z,17.38
2023-05-18T06:45:07.905Z,16.42
2023-05-18T06:46:08.113Z,16.62
2023-05-18T06:47:08.062Z,16.26
2023-05-18T06:48:08.078Z,15.76
2023-05-18T06:49:08.092Z,15.39
2023-05-18T06:50:08.140Z,14.91
2023-05-18T06:51:08.006Z,14.99
2023-05-18T06:52:07.991Z,15.36
2023-05-18T06:53:08.029Z,15.35
2023-05-18T06:54:08.064Z,15.30
2023-05-18T06:55:07.942Z,16.00
2023-05-18T06:56:07.988Z,15.56
2023-05-18T06:57:07.948Z,15.43
2023-05-18T06:58:07.918Z,16.26
2023-05-18T06:59:07.774Z,16.31
2023-05-18T07:00:07.979Z,16.06
2023-05-18T07:01:08.064Z,16.42
2023-05-18T07:02:08.012Z,17.20
2023-05-18T07:03:08.026Z,17.97
2023-05-18T07:04:08.139Z,18.42
2023-05-18T07:05:07.882Z,18.37
2023-05-18T07:06:07.898Z,18.02
2023-05-18T07:07:07.811Z,18.40
2023-05-18T07:08:07.793Z,17.85
2023-05-18T07:09:07.703Z,17.40
2023-05-18T07:10:07.899Z,16.70
2023-05-18T07:11:07.816Z,15.75
2023-05-18T07:12:07.790Z,16.27
2023-05-18T07:13:07.851Z,17.35
2023-05-18T07:14:07.749Z,17.89
2023-05-18T07:15:07.848Z,18.19
2023-05-18T07:16:07.832Z,18.04
2023-05-18T07:17:07.808Z,18.00
2023-05-18T07:18:07.886Z,17.82
2023-05-18T07:19:07.643Z,17.18
2023-05-18T07:20:07.581Z,17.94
2023-05-18T07:21:07.755Z,18.43
2023-05-18T07:22:07.899Z,18.65
2023-05-18T07:23:07.717Z,19.21
2023-05-18T07:24:07.777Z,19.76
2023-05-18T07:25:07.507Z,20.20
2023-05-18T07:26:07.556Z,20.43
2023-05-18T07:27:07.642Z,20.62
2023-05-18T07:28:07.652Z,19.40
2023-05-18T07:29:07.503Z,18.99
2023-05-18T07:30:07.601Z,19.15
2023-05-18T07:31:07.559Z,19.29
2023-05-18T07:32:07.547Z,19.35
2023-05-18T07:33:07.661Z,19.35
2023-05-18T07:34:07.419Z,19.28
2023-05-18T07:35:07.417Z,18.43
2023-05-18T07:36:07.545Z,18.13
2023-05-18T07:37:07.407Z,18.86
2023-05-18T07:38:07.534Z,19.43
2023-05-18T07:39:07.468Z,19.75
2023-05-18T07:40:07.489Z,17.97
2023-05-18T07:41:07.369Z,17.23
2023-05-18T07:42:07.481Z,16.98
2023-05-18T07:43:07.434Z,16.59
2023-05-18T07:44:07.455Z,17.25
2023-05-18T07:45:07.495Z,18.27
2023-05-18T07:46:07.481Z,19.20
2023-05-18T07:47:07.708Z,19.79
2023-05-18T07:48:07.465Z,20.54
2023-05-18T07:49:07.417Z,21.23
2023-05-18T07:50:07.324Z,21.67
2023-05-18T07:51:07.390Z,21.24
2023-05-18T07:52:07.640Z,21.32
2023-05-18T07:53:07.398Z,21.08
2023-05-18T07:54:07.367Z,20.41
2023-05-18T07:55:07.390Z,19.73
2023-05-18T07:56:07.255Z,19.66
2023-05-18T07:57:07.385Z,20.24
2023-05-18T07:58:07.247Z,19.54
2023-05-18T07:59:07.358Z,18.74
2023-05-18T08:00:07.204Z,18.82
2023-05-18T08:01:07.407Z,19.65
2023-05-18T08:02:07.222Z,20.53
2023-05-18T08:03:07.238Z,21.29
2023-05-18T08:04:07.234Z,21.71
2023-05-18T08:05:07.411Z,22.07
2023-05-18T08:06:07.256Z,22.75
2023-05-18T08:07:07.479Z,23.05
2023-05-18T08:08:07.247Z,23.27
2023-05-18T08:09:07.243Z,23.82
2023-05-18T08:10:07.109Z,24.22
2023-05-18T08:11:07.042Z,21.48
2023-05-18T08:12:07.121Z,21.16
2023-05-18T08:13:07.144Z,20.72
2023-05-18T08:14:07.020Z,21.01
2023-05-18T08:15:07.041Z,21.63
2023-05-18T08:16:11.840Z,21.44
2023-05-18T08:17:07.153Z,21.91
2023-05-18T08:18:07.032Z,22.22
2023-05-18T08:19:07.036Z,22.29
2023-05-18T08:20:06.958Z,22.20
2023-05-18T08:21:07.011Z,22.87
2023-05-18T08:22:06.930Z,23.55
2023-05-18T08:23:06.960Z,24.20
2023-05-18T08:24:07.009Z,23.64
2023-05-18T08:25:06.917Z,22.83
2023-05-18T08:26:06.969Z,23.26
2023-05-18T08:27:06.945Z,23.83
2023-05-18T08:28:06.932Z,22.80
2023-05-18T08:29:07.107Z,23.12
2023-05-18T08:30:06.924Z,23.15
2023-05-18T08:31:06.878Z,23.76
2023-05-18T08:32:06.906Z,24.05
2023-05-18T08:33:07.024Z,24.02
2023-05-18T08:34:06.974Z,23.50
2023-05-18T08:35:06.956Z,22.99
2023-05-18T08:36:06.890Z,23.45
2023-05-18T08:37:06.776Z,23.38
2023-05-18T08:38:06.873Z,22.34
2023-05-18T08:39:06.868Z,21.60
2023-05-18T08:40:06.771Z,22.25
2023-05-18T08:41:06.753Z,22.13
2023-05-18T08:42:06.884Z,22.12
2023-05-18T08:43:06.798Z,22.74
2023-05-18T08:44:06.727Z,23.46
2023-05-18T08:45:06.700Z,24.31
2023-05-18T08:46:06.792Z,24.98
2023-05-18T08:47:06.697Z,24.98
2023-05-18T08:48:06.767Z,25.42
2023-05-18T08:49:06.786Z,25.82
2023-05-18T08:50:06.811Z,26.40
2023-05-18T08:51:06.719Z,26.65
2023-05-18T08:52:06.695Z,26.44
2023-05-18T08:53:06.706Z,26.57
2023-05-18T08:54:06.754Z,26.67
2023-05-18T08:55:07.512Z,26.59
2023-05-18T08:56:06.731Z,26.62
2023-05-18T08:57:06.819Z,25.27
2023-05-18T08:58:06.745Z,24.53
2023-05-18T08:59:06.826Z,23.97
2023-05-18T09:00:06.708Z,23.60
2023-05-18T09:01:06.820Z,23.68
2023-05-18T09:02:06.948Z,22.49
2023-05-18T09:03:06.788Z,22.64
2023-05-18T09:04:06.682Z,22.83
2023-05-18T09:05:06.728Z,23.43
2023-05-18T09:06:06.682Z,23.77
2023-05-18T09:07:06.688Z,23.17
2023-05-18T09:08:06.744Z,22.68
2023-05-18T09:09:06.673Z,21.56
2023-05-18T09:10:06.598Z,21.30
2023-05-18T09:11:06.563Z,20.90
2023-05-18T09:12:06.551Z,21.20
2023-05-18T09:13:06.768Z,21.79
2023-05-18T09:14:06.553Z,22.27
2023-05-18T09:15:06.536Z,22.64
2023-05-18T09:16:06.596Z,22.64
2023-05-18T09:17:06.584Z,22.49
2023-05-18T09:18:06.677Z,22.82
2023-05-18T09:19:06.561Z,22.83
2023-05-18T09:20:06.479Z,21.60
2023-05-18T09:21:06.531Z,21.26
2023-05-18T09:22:06.512Z,21.56
2023-05-18T09:23:06.480Z,22.27
2023-05-18T09:24:06.534Z,22.77
2023-05-18T09:25:06.333Z,23.02
2023-05-18T09:26:06.506Z,23.42
2023-05-18T09:27:06.434Z,23.68
2023-05-18T09:28:06.513Z,23.89
2023-05-18T09:29:06.430Z,22.92
2023-05-18T09:30:06.393Z,20.81
2023-05-18T09:31:06.425Z,21.30
2023-05-18T09:32:06.537Z,21.51
2023-05-18T09:33:06.515Z,21.53
2023-05-18T09:35:06.434Z,22.77
2023-05-18T09:36:06.360Z,23.52
2023-05-18T09:37:06.255Z,24.24
2023-05-18T09:38:06.310Z,24.88
2023-05-18T09:39:06.437Z,24.10
2023-05-18T09:40:06.332Z,24.31
2023-05-18T09:41:06.290Z,24.31
2023-05-18T09:42:06.335Z,24.54
2023-05-18T09:43:06.388Z,24.77
2023-05-18T09:44:06.362Z,23.92
2023-05-18T09:45:06.328Z,24.32
2023-05-18T09:46:06.395Z,24.91
2023-05-18T09:47:06.274Z,25.16
2023-05-18T09:48:06.354Z,25.49
2023-05-18T09:49:06.247Z,25.68
2023-05-18T09:50:06.308Z,25.90
2023-05-18T09:51:06.286Z,25.97
2023-05-18T09:52:06.374Z,25.98
2023-05-18T09:53:06.330Z,25.57
2023-05-18T09:54:06.202Z,25.72
2023-05-18T09:55:06.285Z,25.38
2023-05-18T09:56:06.253Z,24.39
2023-05-18T09:57:10.097Z,24.16
2023-05-18T09:58:06.206Z,24.77
2023-05-18T09:59:06.178Z,25.52
2023-05-18T10:00:06.155Z,25.61
2023-05-18T10:01:06.428Z,25.82
2023-05-18T10:02:06.273Z,25.53
2023-05-18T10:03:06.269Z,25.32
2023-05-18T10:04:06.428Z,25.22
2023-05-18T10:05:06.071Z,25.47
2023-05-18T10:06:06.285Z,25.46
2023-05-18T10:07:06.092Z,25.30
2023-05-18T10:08:06.178Z,24.80
2023-05-18T10:09:06.156Z,24.85
2023-05-18T10:10:08.510Z,24.90
2023-05-18T10:11:06.090Z,25.15
2023-05-18T10:12:06.079Z,25.44
2023-05-18T10:13:05.902Z,25.57
2023-05-18T10:14:06.061Z,25.79
2023-05-18T10:15:05.967Z,24.04
2023-05-18T10:16:05.986Z,22.96
2023-05-18T10:17:15.069Z,22.64
2023-05-18T10:18:06.100Z,22.60
2023-05-18T10:19:05.989Z,21.78
2023-05-18T10:20:05.991Z,22.23
2023-05-18T10:21:05.961Z,23.17
2023-05-18T10:22:05.922Z,24.00
2023-05-18T10:23:05.965Z,24.22
2023-05-18T10:24:06.072Z,24.04
2023-05-18T10:25:05.918Z,22.20
2023-05-18T10:26:06.020Z,22.20
2023-05-18T10:27:05.877Z,22.86
2023-05-18T10:28:05.987Z,23.86
2023-05-18T10:29:05.960Z,24.38
2023-05-18T10:30:05.899Z,24.92
2023-05-18T10:31:05.866Z,24.24
2023-05-18T10:32:07.856Z,24.63
2023-05-18T10:33:14.014Z,23.04
2023-05-18T10:34:05.846Z,22.46
2023-05-18T10:35:05.760Z,20.53
2023-05-18T10:36:05.726Z,19.24
2023-05-18T10:37:05.771Z,19.02
2023-05-18T10:38:05.848Z,18.65
2023-05-18T10:39:05.653Z,18.40
2023-05-18T10:40:05.648Z,17.97
2023-05-18T10:41:05.821Z,17.48
2023-05-18T10:42:05.583Z,17.63
2023-05-18T10:43:05.845Z,18.00
2023-05-18T10:44:05.718Z,18.25
2023-05-18T10:45:05.745Z,18.15
2023-05-18T10:46:05.913Z,18.07
2023-05-18T10:47:05.884Z,17.95
2023-05-18T10:48:05.667Z,17.82
2023-05-18T10:49:05.704Z,17.91
2023-05-18T10:50:05.692Z,18.03
2023-05-18T10:51:05.742Z,18.18
2023-05-18T10:52:05.472Z,18.22
2023-05-18T10:53:05.607Z,18.43
2023-05-18T10:54:05.512Z,18.52
2023-05-18T10:55:05.693Z,18.67
2023-05-18T10:56:05.458Z,18.80
2023-05-18T10:57:05.440Z,18.97
2023-05-18T10:58:05.497Z,19.01
2023-05-18T10:59:05.500Z,19.14
2023-05-18T11:00:05.414Z,18.61
2023-05-18T11:01:05.505Z,18.28
2023-05-18T11:02:05.645Z,18.40
2023-05-18T11:03:05.538Z,18.36
2023-05-18T11:04:05.353Z,18.59
2023-05-18T11:05:05.559Z,18.84
2023-05-18T11:06:05.454Z,19.11
2023-05-18T11:07:05.563Z,19.15
2023-05-18T11:08:05.649Z,19.31
2023-05-18T11:09:05.354Z,18.72
2023-05-18T11:10:05.320Z,18.12
2023-05-18T11:11:05.346Z,17.67
2023-05-18T11:12:05.487Z,17.66
2023-05-18T11:13:05.445Z,16.93
2023-05-18T11:14:05.381Z,16.96
2023-05-18T11:15:05.449Z,16.99
2023-05-18T11:16:05.531Z,16.93
2023-05-18T11:17:05.489Z,17.26
2023-05-18T11:18:05.442Z,17.22
2023-05-18T11:19:05.252Z,17.22
2023-05-18T11:20:05.225Z,17.17
2023-05-18T11:21:05.316Z,17.30
2023-05-18T11:22:05.297Z,17.50
2023-05-18T11:23:05.384Z,17.74
2023-05-18T11:24:05.392Z,17.95
2023-05-18T11:25:05.314Z,18.02
2023-05-18T11:26:05.160Z,17.57
2023-05-18T11:27:05.318Z,17.00
2023-05-18T11:28:05.307Z,16.35
2023-05-18T11:29:05.219Z,16.11
2023-05-18T11:30:15.254Z,16.34
2023-05-18T11:31:05.280Z,16.63
2023-05-18T11:32:05.500Z,16.63
2023-05-18T11:33:05.338Z,16.71
2023-05-18T11:34:05.238Z,16.95
2023-05-18T11:35:05.090Z,17.14
2023-05-18T11:36:05.040Z,17.11
2023-05-18T11:37:05.065Z,17.03
2023-05-18T11:38:05.219Z,16.88
2023-05-18T11:39:05.053Z,16.58
2023-05-18T11:40:08.454Z,16.56
2023-05-18T11:41:05.101Z,16.56
2023-05-18T11:42:05.167Z,16.70
2023-05-18T11:43:05.151Z,16.63
2023-05-18T11:44:05.057Z,16.50
2023-05-18T11:45:05.112Z,16.48
2023-05-18T11:46:05.111Z,16.50
2023-05-18T11:47:05.074Z,16.30
2023-05-18T11:48:05.252Z,15.76
2023-05-18T11:49:05.019Z,15.78
2023-05-18T11:50:05.039Z,15.51
2023-05-18T11:51:05.001Z,15.36
2023-05-18T11:52:05.130Z,15.57
2023-05-18T11:53:04.915Z,15.79
2023-05-18T11:54:04.861Z,15.93
2023-05-18T11:55:04.885Z,16.14
2023-05-18T11:56:05.072Z,16.37
2023-05-18T11:57:04.935Z,16.41
2023-05-18T11:58:05.096Z,16.31
2023-05-18T11:59:04.983Z,16.20
2023-05-18T12:00:04.895Z,16.27
2023-05-18T12:01:04.944Z,15.85
2023-05-18T12:02:05.100Z,15.67
2023-05-18T12:03:05.088Z,15.67
2023-05-18T12:04:05.124Z,15.57
2023-05-18T12:05:04.861Z,15.28
2023-05-18T12:06:04.991Z,14.90
2023-05-18T12:07:04.819Z,14.72
2023-05-18T12:08:04.882Z,14.69
2023-05-18T12:09:04.831Z,14.47
2023-05-18T12:10:04.794Z,14.64
2023-05-18T12:11:04.802Z,14.64
2023-05-18T12:12:04.885Z,14.98
2023-05-18T12:13:04.797Z,15.19
2023-05-18T12:14:04.780Z,15.45
2023-05-18T12:15:04.832Z,15.68
2023-05-18T12:16:04.659Z,15.86
2023-05-18T12:17:04.887Z,16.04
2023-05-18T12:18:04.777Z,16.00
2023-05-18T12:19:04.809Z,15.88
2023-05-18T12:20:04.680Z,15.85
2023-05-18T12:21:04.769Z,15.97
2023-05-18T12:22:04.785Z,16.11
2023-05-18T12:23:04.729Z,16.27
2023-05-18T12:24:04.692Z,16.34
2023-05-18T12:25:04.737Z,16.45
2023-05-18T12:26:04.634Z,16.59
2023-05-18T12:27:07.363Z,16.73
2023-05-18T12:28:04.752Z,16.77
2023-05-18T12:29:04.713Z,16.80
2023-05-18T12:30:04.647Z,16.88
2023-05-18T12:31:04.710Z,17.03
2023-05-18T12:32:04.470Z,16.99
2023-05-18T12:33:04.537Z,16.38
2023-05-18T12:34:04.490Z,15.84
2023-05-18T12:35:04.447Z,15.64
2023-05-18T12:36:04.451Z,15.39
2023-05-18T12:37:04.400Z,15.17
2023-05-18T12:38:04.409Z,15.09
2023-05-18T12:39:04.390Z,15.11
2023-05-18T12:40:04.353Z,15.01
2023-05-18T12:41:04.393Z,15.01
2023-05-18T12:42:04.349Z,15.01
2023-05-18T12:43:04.355Z,15.06
2023-05-18T12:44:04.310Z,15.06
2023-05-18T12:45:06.577Z,15.15
2023-05-18T12:46:04.331Z,15.05
2023-05-18T12:47:04.368Z,15.09
2023-05-18T12:48:04.325Z,14.87
2023-05-18T12:49:04.268Z,14.78
2023-05-18T12:50:04.276Z,14.81
2023-05-18T12:51:04.242Z,14.91
2023-05-18T12:52:04.254Z,15.03
2023-05-18T12:53:04.275Z,15.15
2023-05-18T12:54:04.196Z,15.19
2023-05-18T12:55:04.226Z,15.19
2023-05-18T12:56:04.227Z,14.95
2023-05-18T12:57:04.173Z,14.91
2023-05-18T12:58:04.203Z,15.09
2023-05-18T12:59:04.179Z,15.13
2023-05-18T13:00:04.134Z,15.45
2023-05-18T13:01:04.203Z,15.35
2023-05-18T13:02:04.176Z,15.35
2023-05-18T13:03:04.318Z,15.43